createdAt,value
2018-03-20T00:02:25.180Z,97895.92
2018-03-20T00:04:52.679Z,97886.73
2018-03-20T00:07:20.196Z,97893.78
2018-03-20T00:09:47.812Z,97889.63
2018-03-20T00:12:15.330Z,97878.94
2018-03-20T00:14:42.834Z,97877.27
2018-03-20T00:17:10.375Z,97886.41
2018-03-20T00:19:37.871Z,97881.46
2018-03-20T00:22:05.383Z,97875.56
2018-03-20T00:24:32.947Z,97886.67
2018-03-20T00:27:00.455Z,97894.34
2018-03-20T00:29:27.980Z,97889.66
2018-03-20T00:31:55.492Z,97898.39
2018-03-20T00:34:22.974Z,97896.24
2018-03-20T00:36:50.480Z,97899.77
2018-03-20T00:39:17.982Z,97894.66
2018-03-20T00:41:45.574Z,97901.52
2018-03-20T00:44:13.078Z,97899.69
2018-03-20T00:46:40.595Z,97899.98
2018-03-20T00:49:08.091Z,97906.72
2018-03-20T00:51:35.604Z,97904.55
2018-03-20T00:54:03.106Z,97908.03
2018-03-20T00:56:30.599Z,97906.88
2018-03-20T00:58:58.120Z,97905.87
2018-03-20T01:01:25.616Z,97911.26
2018-03-20T01:03:53.127Z,97908.20
2018-03-20T01:06:20.651Z,97908.53
2018-03-20T01:08:48.213Z,97906.47
2018-03-20T01:11:15.852Z,97916.00
2018-03-20T01:13:43.431Z,97917.63
2018-03-20T01:16:11.047Z,97915.81
2018-03-20T01:18:38.760Z,97915.81
2018-03-20T01:21:06.243Z,97916.00
2018-03-20T01:23:33.767Z,97913.37
2018-03-20T01:26:01.259Z,97920.23
2018-03-20T01:28:28.780Z,97920.63
2018-03-20T01:30:56.284Z,97918.81
2018-03-20T01:33:23.795Z,97921.78
2018-03-20T01:35:51.300Z,97914.31
2018-03-20T01:38:18.816Z,97923.83
2018-03-20T01:40:46.379Z,97915.12
2018-03-20T01:43:13.939Z,97919.16
2018-03-20T01:45:41.427Z,97919.89
2018-03-20T01:48:08.964Z,97918.70
2018-03-20T01:50:36.468Z,97918.48
2018-03-20T01:53:16.015Z,97919.33
2018-03-20T01:55:43.508Z,97922.16
2018-03-20T01:58:11.071Z,97924.48
2018-03-20T02:00:38.564Z,97929.09
2018-03-20T02:03:06.083Z,97923.89
2018-03-20T02:05:33.576Z,97927.84
2018-03-20T02:08:01.099Z,97928.48
2018-03-20T02:10:28.596Z,97922.80
2018-03-20T02:12:56.111Z,97924.10
2018-03-20T02:15:23.603Z,97924.22
2018-03-20T02:17:51.119Z,97926.84
2018-03-20T02:20:18.706Z,97929.31
2018-03-20T02:22:46.231Z,97928.69
2018-03-20T02:25:13.723Z,97926.33
2018-03-20T02:27:41.288Z,97921.16
2018-03-20T02:30:08.796Z,97925.84
2018-03-20T02:32:36.303Z,97932.31
2018-03-20T02:35:03.868Z,97931.97
2018-03-20T02:37:31.417Z,97932.80
2018-03-20T02:39:58.988Z,97932.64
2018-03-20T02:42:26.479Z,97936.00
2018-03-20T02:44:54.003Z,97937.11
2018-03-20T02:47:21.505Z,97936.58
2018-03-20T02:49:49.130Z,97929.02
2018-03-20T02:52:17.606Z,97940.20
2018-03-20T02:54:45.132Z,97936.70
2018-03-20T02:57:12.641Z,97940.84
2018-03-20T02:59:40.173Z,97940.38
2018-03-20T03:02:08.632Z,97942.37
2018-03-20T03:04:36.157Z,97947.31
2018-03-20T03:07:03.656Z,97946.83
2018-03-20T03:09:31.240Z,97950.78
2018-03-20T03:11:58.736Z,97953.46
2018-03-20T03:14:26.351Z,97946.42
2018-03-20T03:16:53.840Z,97951.30
2018-03-20T03:19:21.392Z,97950.72
2018-03-20T03:21:48.891Z,97959.08
2018-03-20T03:24:16.490Z,97954.84
2018-03-20T03:26:43.986Z,97954.41
2018-03-20T03:29:11.495Z,97957.45
2018-03-20T03:31:39.025Z,97955.04
2018-03-20T03:34:06.541Z,97960.03
2018-03-20T03:36:34.088Z,97964.29
2018-03-20T03:39:01.606Z,97962.92
2018-03-20T03:41:29.204Z,97974.02
2018-03-20T03:43:56.713Z,97974.96
2018-03-20T03:46:24.238Z,97976.48
2018-03-20T03:48:51.752Z,97980.00
2018-03-20T03:51:20.263Z,97981.17
2018-03-20T03:53:47.786Z,97985.27
2018-03-20T03:56:15.280Z,97985.63
2018-03-20T03:58:42.812Z,97987.43
2018-03-20T04:01:10.319Z,97985.58
2018-03-20T04:03:37.851Z,97992.20
2018-03-20T04:06:05.426Z,97996.46
2018-03-20T04:08:32.968Z,98002.20
2018-03-20T04:11:00.467Z,98004.45
2018-03-20T04:13:27.959Z,98007.14
2018-03-20T04:15:55.479Z,98010.48
2018-03-20T04:18:22.982Z,98011.86
2018-03-20T04:20:50.599Z,98013.98
2018-03-20T04:23:18.102Z,98017.70
2018-03-20T04:25:45.614Z,98022.07
2018-03-20T04:28:13.214Z,98029.64
2018-03-20T04:30:40.732Z,98029.73
2018-03-20T04:33:08.240Z,98038.52
2018-03-20T04:35:35.796Z,98031.00
2018-03-20T04:38:03.387Z,98034.99
2018-03-20T04:40:30.899Z,98035.58
2018-03-20T04:42:58.429Z,98034.63
2018-03-20T04:45:25.961Z,98034.16
2018-03-20T04:47:53.523Z,98042.47
2018-03-20T04:50:21.083Z,98042.03
2018-03-20T04:52:48.584Z,98033.42
2018-03-20T04:55:16.099Z,98038.69
2018-03-20T04:57:43.600Z,98043.89
2018-03-20T05:00:11.115Z,98047.10
2018-03-20T05:02:38.603Z,98054.45
2018-03-20T05:05:06.134Z,98059.25
2018-03-20T05:07:33.697Z,98058.83
2018-03-20T05:10:01.252Z,98059.34
2018-03-20T05:12:28.755Z,98058.05
2018-03-20T05:14:56.381Z,98059.77
2018-03-20T05:17:23.883Z,98062.75
2018-03-20T05:19:52.800Z,98056.19
2018-03-20T05:22:23.235Z,98065.70
2018-03-20T05:24:50.812Z,98074.03
2018-03-20T05:27:18.308Z,98081.58
2018-03-20T05:29:45.818Z,98083.48
2018-03-20T05:32:13.348Z,98088.53
2018-03-20T05:34:40.860Z,98092.58
2018-03-20T05:37:08.357Z,98095.42
2018-03-20T05:39:35.896Z,98094.30
2018-03-20T05:42:03.397Z,98096.36
2018-03-20T05:44:30.895Z,98098.95
2018-03-20T05:47:01.973Z,98101.63
2018-03-20T05:49:34.432Z,98106.83
2018-03-20T05:52:06.462Z,98119.59
2018-03-20T05:54:33.957Z,98116.70
2018-03-20T05:57:01.580Z,98119.74
2018-03-20T05:59:29.089Z,98124.95
2018-03-20T06:01:56.608Z,98127.08
2018-03-20T06:04:24.095Z,98131.89
2018-03-20T06:06:51.607Z,98134.95
2018-03-20T06:09:19.179Z,98135.58
2018-03-20T06:11:46.691Z,98136.64
2018-03-20T06:14:14.180Z,98138.63
2018-03-20T06:16:41.704Z,98137.48
2018-03-20T06:19:09.196Z,98143.75
2018-03-20T06:21:36.716Z,98147.16
2018-03-20T06:24:04.199Z,98149.39
2018-03-20T06:26:31.720Z,98149.91
2018-03-20T06:28:59.239Z,98159.30
2018-03-20T06:31:26.760Z,98170.22
2018-03-20T06:33:54.365Z,98180.95
2018-03-20T06:36:22.032Z,98182.33
2018-03-20T06:38:49.733Z,98188.02
2018-03-20T06:41:17.355Z,98186.49
2018-03-20T06:43:44.852Z,98197.33
2018-03-20T06:46:12.367Z,98197.61
2018-03-20T06:48:39.927Z,98207.12
2018-03-20T06:51:07.495Z,98210.91
2018-03-20T06:53:35.044Z,98213.09
2018-03-20T06:56:02.624Z,98221.19
2018-03-20T06:58:30.191Z,98225.05
2018-03-20T07:00:57.729Z,98227.71
2018-03-20T07:03:25.245Z,98225.63
2018-03-20T07:05:52.736Z,98228.72
2018-03-20T07:08:20.268Z,98231.22
2018-03-20T07:10:47.764Z,98245.30
2018-03-20T07:13:15.292Z,98240.43
2018-03-20T07:15:42.782Z,98246.81
2018-03-20T07:18:10.292Z,98251.31
2018-03-20T07:20:37.776Z,98257.06
2018-03-20T07:23:05.301Z,98255.95
2018-03-20T07:25:32.789Z,98261.31
2018-03-20T07:28:00.388Z,98268.53
2018-03-20T07:30:28.000Z,98271.17
2018-03-20T07:32:55.517Z,98268.56
2018-03-20T07:35:23.020Z,98272.92
2018-03-20T07:37:50.587Z,98285.47
2018-03-20T07:40:18.076Z,98291.60
2018-03-20T07:42:45.639Z,98287.50
2018-03-20T07:45:13.171Z,98294.75
2018-03-20T07:47:40.695Z,98299.13
2018-03-20T07:50:08.199Z,98303.81
2018-03-20T07:52:35.728Z,98297.36
2018-03-20T07:55:03.237Z,98302.27
2018-03-20T07:57:30.756Z,98309.52
2018-03-20T07:59:58.424Z,98309.81
2018-03-20T08:02:26.024Z,98315.59
2018-03-20T08:04:53.519Z,98316.55
2018-03-20T08:07:21.175Z,98320.22
2018-03-20T08:09:48.683Z,98326.56
2018-03-20T08:12:16.189Z,98326.39
2018-03-20T08:14:43.710Z,98332.61
2018-03-20T08:17:11.204Z,98326.42
2018-03-20T08:19:38.720Z,98330.67
2018-03-20T08:22:06.238Z,98341.84
2018-03-20T08:24:33.770Z,98345.79
2018-03-20T08:27:01.301Z,98346.61
2018-03-20T08:29:28.812Z,98346.18
2018-03-20T08:31:56.353Z,98352.00
2018-03-20T08:34:23.876Z,98353.84
2018-03-20T08:36:51.435Z,98368.28
2018-03-20T08:39:18.959Z,98365.38
2018-03-20T08:41:46.455Z,98367.67
2018-03-20T08:44:13.970Z,98366.22
2018-03-20T08:46:41.488Z,98363.34
2018-03-20T08:49:09.028Z,98372.66
2018-03-20T08:51:36.516Z,98378.96
2018-03-20T08:54:04.670Z,98376.19
2018-03-20T08:56:32.656Z,98382.55
2018-03-20T08:59:00.235Z,98378.05
2018-03-20T09:01:27.713Z,98385.80
2018-03-20T09:03:55.253Z,98385.12
2018-03-20T09:06:22.806Z,98387.55
2018-03-20T09:08:51.251Z,98387.83
2018-03-20T09:11:18.924Z,98397.78
2018-03-20T09:13:46.439Z,98396.56
2018-03-20T09:16:13.944Z,98389.38
2018-03-20T09:18:41.452Z,98397.63
2018-03-20T09:21:08.979Z,98402.88
2018-03-20T09:23:36.508Z,98405.47
2018-03-20T09:26:04.008Z,98402.14
2018-03-20T09:28:31.523Z,98403.78
2018-03-20T09:30:59.092Z,98409.91
2018-03-20T09:33:26.615Z,98412.28
2018-03-20T09:35:54.239Z,98411.55
2018-03-20T09:38:21.747Z,98414.20
2018-03-20T09:40:49.278Z,98412.27
2018-03-20T09:43:16.795Z,98416.48
2018-03-20T09:45:44.336Z,98421.84
2018-03-20T09:48:11.828Z,98419.34
2018-03-20T09:50:39.384Z,98423.69
2018-03-20T09:53:06.875Z,98421.19
2018-03-20T09:55:34.483Z,98421.05
2018-03-20T09:58:02.048Z,98433.89
2018-03-20T10:00:29.568Z,98423.41
2018-03-20T10:02:57.061Z,98426.11
2018-03-20T10:05:24.597Z,98424.41
2018-03-20T10:07:52.185Z,98424.91
2018-03-20T10:10:19.704Z,98428.12
2018-03-20T10:12:47.215Z,98426.27
2018-03-20T10:15:14.753Z,98431.42
2018-03-20T10:17:42.425Z,98436.87
2018-03-20T10:20:09.975Z,98441.19
2018-03-20T10:22:37.462Z,98446.09
2018-03-20T10:25:05.046Z,98445.56
2018-03-20T10:27:32.600Z,98448.43
2018-03-20T10:30:00.326Z,98445.80
2018-03-20T10:32:27.821Z,98451.20
2018-03-20T10:34:55.343Z,98455.95
2018-03-20T10:37:22.843Z,98452.34
2018-03-20T10:39:51.363Z,98457.41
2018-03-20T10:42:18.856Z,98458.35
2018-03-20T10:44:46.391Z,98465.00
2018-03-20T10:47:13.880Z,98459.92
2018-03-20T10:49:41.395Z,98460.35
2018-03-20T10:52:08.892Z,98463.33
2018-03-20T10:54:36.412Z,98463.04
2018-03-20T10:57:03.915Z,98465.62
2018-03-20T10:59:31.427Z,98466.52
2018-03-20T11:02:04.603Z,98471.58
2018-03-20T11:04:32.191Z,98470.57
2018-03-20T11:06:59.683Z,98472.83
2018-03-20T11:09:27.310Z,98474.77
2018-03-20T11:11:54.800Z,98473.54
2018-03-20T11:14:22.336Z,98465.94
2018-03-20T11:16:49.840Z,98462.61
2018-03-20T11:19:17.409Z,98474.39
2018-03-20T11:21:44.901Z,98478.70
2018-03-20T11:24:12.412Z,98480.33
2018-03-20T11:26:39.924Z,98486.94
2018-03-20T11:29:07.431Z,98486.75
2018-03-20T11:31:35.005Z,98487.65
2018-03-20T11:34:02.528Z,98481.41
2018-03-20T11:36:30.152Z,98485.68
2018-03-20T11:38:57.652Z,98481.61
2018-03-20T11:41:25.185Z,98486.13
2018-03-20T11:43:52.740Z,98492.36
2018-03-20T11:46:20.243Z,98485.63
2018-03-20T11:48:47.768Z,98485.17
2018-03-20T11:51:15.296Z,98486.20
2018-03-20T11:53:42.796Z,98491.94
2018-03-20T11:56:10.319Z,98489.66
2018-03-20T11:58:37.827Z,98484.06
2018-03-20T12:01:05.372Z,98484.97
2018-03-20T12:03:32.880Z,98488.69
2018-03-20T12:06:00.435Z,98484.75
2018-03-20T12:08:39.844Z,98495.11
2018-03-20T12:11:07.368Z,98491.98
2018-03-20T12:13:34.927Z,98489.63
2018-03-20T12:16:02.488Z,98487.43
2018-03-20T12:18:29.988Z,98497.52
2018-03-20T12:20:57.509Z,98499.45
2018-03-20T12:23:25.059Z,98500.48
2018-03-20T12:25:52.622Z,98494.81
2018-03-20T12:28:20.135Z,98498.77
2018-03-20T12:30:47.735Z,98493.80
2018-03-20T12:33:15.268Z,98495.34
2018-03-20T12:35:42.809Z,98489.14
2018-03-20T12:38:10.320Z,98493.23
2018-03-20T12:40:37.849Z,98496.34
2018-03-20T12:43:05.432Z,98493.23
2018-03-20T12:45:32.986Z,98494.28
2018-03-20T12:48:00.512Z,98490.31
2018-03-20T12:50:28.043Z,98495.37
2018-03-20T12:52:55.544Z,98498.34
2018-03-20T12:55:23.100Z,98496.14
2018-03-20T12:57:50.668Z,98494.30
2018-03-20T13:00:18.192Z,98491.69
2018-03-20T13:02:45.724Z,98490.39
2018-03-20T13:05:13.252Z,98484.94
2018-03-20T13:07:40.871Z,98488.82
2018-03-20T13:10:08.378Z,98490.17
2018-03-20T13:12:35.900Z,98489.58
2018-03-20T13:15:03.426Z,98493.52
2018-03-20T13:17:31.889Z,98498.45
2018-03-20T13:19:59.387Z,98499.13
2018-03-20T13:22:27.013Z,98502.84
2018-03-20T13:24:54.548Z,98504.06
2018-03-20T13:27:22.129Z,98509.08
2018-03-20T13:29:49.621Z,98508.42
2018-03-20T13:32:17.156Z,98517.00
2018-03-20T13:34:44.665Z,98515.60
2018-03-20T13:37:12.192Z,98510.30
2018-03-20T13:39:39.705Z,98514.94
2018-03-20T13:42:07.296Z,98512.55
2018-03-20T13:44:34.799Z,98511.64
2018-03-20T13:47:02.316Z,98518.38
2018-03-20T13:49:29.829Z,98520.02
2018-03-20T13:51:57.353Z,98523.78
2018-03-20T13:54:24.848Z,98531.91
2018-03-20T13:56:52.432Z,98527.70
2018-03-20T13:59:19.944Z,98533.89
2018-03-20T14:01:47.465Z,98534.84
2018-03-20T14:04:14.959Z,98535.18
2018-03-20T14:06:42.477Z,98532.88
2018-03-20T14:09:10.146Z,98538.05
2018-03-20T14:11:37.696Z,98533.13
2018-03-20T14:14:05.200Z,98539.70
2018-03-20T14:16:32.708Z,98544.73
2018-03-20T14:19:00.211Z,98542.09
2018-03-20T14:21:27.719Z,98541.64
2018-03-20T14:23:56.176Z,98548.87
2018-03-20T14:26:23.703Z,98546.91
2018-03-20T14:28:51.248Z,98553.06
2018-03-20T14:31:18.803Z,98549.14
2018-03-20T14:33:46.317Z,98558.48
2018-03-20T14:36:13.903Z,98558.98
2018-03-20T14:38:41.424Z,98564.14
2018-03-20T14:41:08.929Z,98562.96
2018-03-20T14:43:36.490Z,98567.20
2018-03-20T14:46:03.988Z,98571.36
2018-03-20T14:48:31.595Z,98571.77
2018-03-20T14:50:59.099Z,98572.66
2018-03-20T14:53:26.635Z,98577.66
2018-03-20T14:55:54.191Z,98581.23
2018-03-20T14:58:21.732Z,98584.23
2018-03-20T15:00:49.257Z,98575.41
2018-03-20T15:03:16.795Z,98590.12
2018-03-20T15:05:44.291Z,98592.47
2018-03-20T15:08:11.861Z,98594.11
2018-03-20T15:10:40.353Z,98603.42
2018-03-20T15:13:07.912Z,98597.00
2018-03-20T15:15:36.379Z,98597.39
2018-03-20T15:18:04.063Z,98601.43
2018-03-20T15:20:31.568Z,98599.91
2018-03-20T15:22:59.089Z,98601.08
2018-03-20T15:25:26.575Z,98604.33
2018-03-20T15:27:54.999Z,98609.19
2018-03-20T15:30:22.675Z,98615.13
2018-03-20T15:32:51.163Z,98618.20
2018-03-20T15:35:18.687Z,98619.28
2018-03-20T15:37:46.195Z,98616.30
2018-03-20T15:40:13.711Z,98626.31
2018-03-20T15:42:41.220Z,98633.64
2018-03-20T15:45:08.736Z,98632.42
2018-03-20T15:47:36.252Z,98647.91
2018-03-20T15:50:03.743Z,98642.83
2018-03-20T15:52:31.367Z,98643.19
2018-03-20T15:54:58.840Z,98643.17
2018-03-20T15:57:26.347Z,98654.50
2018-03-20T15:59:53.851Z,98651.85
2018-03-20T16:02:21.368Z,98662.95
2018-03-20T16:04:48.883Z,98676.85
2018-03-20T16:07:16.388Z,98679.30
2018-03-20T16:09:43.904Z,98670.88
2018-03-20T16:12:11.437Z,98683.76
2018-03-20T16:14:38.968Z,98690.59
2018-03-20T16:17:06.520Z,98691.05
2018-03-20T16:19:34.056Z,98694.22
2018-03-20T16:22:01.555Z,98694.41
2018-03-20T16:24:29.080Z,98700.92
2018-03-20T16:26:56.592Z,98707.41
2018-03-20T16:29:24.159Z,98711.77
2018-03-20T16:31:51.637Z,98716.42
2018-03-20T16:34:19.170Z,98721.81
2018-03-20T16:36:46.663Z,98730.59
2018-03-20T16:39:14.253Z,98728.80
2018-03-20T16:41:41.812Z,98733.55
2018-03-20T16:44:09.348Z,98738.36
2018-03-20T16:46:36.966Z,98732.33
2018-03-20T16:49:04.488Z,98740.89
2018-03-20T16:51:31.986Z,98745.26
2018-03-20T16:53:59.548Z,98751.47
2018-03-20T16:56:27.047Z,98758.55
2018-03-20T16:58:54.600Z,98763.09
2018-03-20T17:01:22.093Z,98767.37
2018-03-20T17:03:49.605Z,98774.61
2018-03-20T17:06:17.096Z,98773.37
2018-03-20T17:08:44.668Z,98782.21
2018-03-20T17:11:12.407Z,98785.97
2018-03-20T17:13:39.935Z,98797.42
2018-03-20T17:16:07.425Z,98795.00
2018-03-20T17:18:34.966Z,98790.30
2018-03-20T17:21:02.469Z,98808.28
2018-03-20T17:23:30.020Z,98814.48
2018-03-20T17:25:57.519Z,98815.96
2018-03-20T17:28:25.081Z,98820.06
2018-03-20T17:30:52.597Z,98830.77
2018-03-20T17:33:20.113Z,98833.81
2018-03-20T17:35:47.599Z,98838.95
2018-03-20T17:38:15.111Z,98848.32
2018-03-20T17:40:42.736Z,98855.06
2018-03-20T17:43:10.305Z,98860.99
2018-03-20T17:45:37.864Z,98864.66
2018-03-20T17:48:05.360Z,98860.78
2018-03-20T17:50:32.898Z,98868.38
2018-03-20T17:53:00.391Z,98870.16
2018-03-20T17:55:28.009Z,98874.11
2018-03-20T17:57:55.522Z,98880.61
2018-03-20T18:00:23.080Z,98892.14
2018-03-20T18:02:50.679Z,98895.72
2018-03-20T18:05:18.214Z,98900.11
2018-03-20T18:07:45.706Z,98907.69
2018-03-20T18:10:13.259Z,98917.00
2018-03-20T18:12:40.780Z,98919.34
2018-03-20T18:15:08.300Z,98923.39
2018-03-20T18:17:35.812Z,98926.44
2018-03-20T18:20:04.288Z,98930.62
2018-03-20T18:22:31.788Z,98939.16
2018-03-20T18:24:59.319Z,98944.88
2018-03-20T18:27:27.753Z,98945.08
2018-03-20T18:29:55.273Z,98942.49
2018-03-20T18:32:22.777Z,98958.05
2018-03-20T18:34:50.436Z,98959.03
2018-03-20T18:37:17.942Z,98958.80
2018-03-20T18:39:45.477Z,98969.55
2018-03-20T18:42:12.993Z,98975.25
2018-03-20T18:44:40.507Z,98980.59
2018-03-20T18:47:08.072Z,98981.34
2018-03-20T18:49:35.598Z,98993.28
2018-03-20T18:52:03.103Z,98993.56
2018-03-20T18:54:30.618Z,98995.20
2018-03-20T18:56:58.235Z,98994.93
2018-03-20T18:59:25.776Z,98997.25
2018-03-20T19:01:53.264Z,99001.59
2018-03-20T19:04:20.787Z,99011.55
2018-03-20T19:06:48.287Z,99011.39
2018-03-20T19:09:15.808Z,99023.20
2018-03-20T19:11:43.362Z,99026.05
2018-03-20T19:14:10.909Z,99026.09
2018-03-20T19:16:38.430Z,99028.27
2018-03-20T19:19:05.923Z,99028.58
2018-03-20T19:21:33.555Z,99025.55
2018-03-20T19:24:01.057Z,99034.97
2018-03-20T19:26:28.582Z,99037.29
2018-03-20T19:28:56.182Z,99038.49
2018-03-20T19:31:23.740Z,99042.64
2018-03-20T19:33:51.239Z,99041.78
2018-03-20T19:36:18.861Z,99040.73
2018-03-20T19:38:46.423Z,99036.33
2018-03-20T19:41:14.099Z,99032.22
2018-03-20T19:43:41.653Z,99035.98
2018-03-20T19:46:09.214Z,99036.75
2018-03-20T19:48:36.746Z,99035.23
2018-03-20T19:51:04.302Z,99047.47
2018-03-20T19:53:31.827Z,99054.64
2018-03-20T19:55:59.351Z,99056.92
2018-03-20T19:58:26.861Z,99057.95
2018-03-20T20:00:54.371Z,99065.75
2018-03-20T20:03:21.921Z,99071.78
2018-03-20T20:05:49.512Z,99068.95
2018-03-20T20:08:17.019Z,99074.13
2018-03-20T20:10:44.551Z,99077.12
2018-03-20T20:13:12.059Z,99083.62
2018-03-20T20:15:39.626Z,99083.12
2018-03-20T20:18:07.145Z,99093.11
2018-03-20T20:20:34.670Z,99089.36
2018-03-20T20:23:02.175Z,99095.33
2018-03-20T20:25:30.674Z,99098.00
2018-03-20T20:27:58.196Z,99091.80
2018-03-20T20:30:25.717Z,99096.22
2018-03-20T20:32:54.210Z,99090.26
2018-03-20T20:35:21.744Z,99092.20
2018-03-20T20:37:49.395Z,99104.69
2018-03-20T20:40:16.908Z,99096.78
2018-03-20T20:42:44.480Z,99096.36
2018-03-20T20:45:12.000Z,99096.98
2018-03-20T20:47:39.572Z,99102.48
2018-03-20T20:50:07.093Z,99101.55
2018-03-20T20:52:34.616Z,99105.45
2018-03-20T20:55:02.108Z,99105.38
2018-03-20T20:57:29.724Z,99107.05
2018-03-20T20:59:57.295Z,99109.72
2018-03-20T21:02:24.819Z,99111.55
2018-03-20T21:04:52.325Z,99107.16
2018-03-20T21:07:19.852Z,99107.63
2018-03-20T21:09:47.354Z,99109.87
2018-03-20T21:12:14.939Z,99114.17
2018-03-20T21:14:42.456Z,99120.34
2018-03-20T21:17:10.011Z,99115.10
2018-03-20T21:19:37.615Z,99119.02
2018-03-20T21:22:05.183Z,99111.89
2018-03-20T21:24:32.688Z,99114.52
2018-03-20T21:27:00.220Z,99114.09
2018-03-20T21:29:27.764Z,99121.22
2018-03-20T21:31:55.298Z,99120.33
2018-03-20T21:34:22.800Z,99119.87
2018-03-20T21:36:50.320Z,99119.52
2018-03-20T21:39:17.818Z,99111.30
2018-03-20T21:41:46.252Z,99110.64
2018-03-20T21:44:13.832Z,99112.68
2018-03-20T21:46:41.356Z,99112.34
2018-03-20T21:49:09.049Z,99114.41
2018-03-20T21:51:36.596Z,99117.86
2018-03-20T21:54:04.127Z,99118.31
2018-03-20T21:56:31.641Z,99125.42
2018-03-20T21:58:59.163Z,99122.56
2018-03-20T22:01:26.679Z,99129.61
2018-03-20T22:03:54.188Z,99119.09
2018-03-20T22:06:21.679Z,99124.47
2018-03-20T22:08:49.226Z,99132.97
2018-03-20T22:11:16.736Z,99131.08
2018-03-20T22:13:44.263Z,99128.70
2018-03-20T22:16:11.763Z,99139.02
2018-03-20T22:18:39.279Z,99129.66
2018-03-20T22:21:06.806Z,99138.73
2018-03-20T22:23:34.393Z,99129.30
2018-03-20T22:26:01.956Z,99137.59
2018-03-20T22:28:29.490Z,99122.15
2018-03-20T22:30:57.025Z,99117.70
2018-03-20T22:33:24.603Z,99106.62
2018-03-20T22:35:52.212Z,99120.03
2018-03-20T22:38:19.727Z,99125.18
2018-03-20T22:40:47.305Z,99135.16
2018-03-20T22:43:14.834Z,99136.84
2018-03-20T22:45:42.381Z,99144.11
2018-03-20T22:48:09.902Z,99145.33
2018-03-20T22:50:37.423Z,99144.38
2018-03-20T22:53:04.936Z,99150.59
2018-03-20T22:55:32.435Z,99154.90
2018-03-20T22:57:59.951Z,99146.80
2018-03-20T23:00:30.135Z,99153.90
2018-03-20T23:02:57.679Z,99161.55
2018-03-20T23:05:25.176Z,99160.49
2018-03-20T23:07:52.719Z,99163.45
2018-03-20T23:10:20.227Z,99165.66
2018-03-20T23:12:47.768Z,99163.88
2018-03-20T23:15:16.388Z,99162.27
2018-03-20T23:17:43.936Z,99159.73
2018-03-20T23:20:11.436Z,99160.88
2018-03-20T23:22:38.977Z,99157.76
2018-03-20T23:25:06.472Z,99154.77
2018-03-20T23:27:34.104Z,99164.80
2018-03-20T23:30:01.610Z,99165.23
2018-03-20T23:32:29.131Z,99168.18
2018-03-20T23:34:56.643Z,99164.73
2018-03-20T23:37:24.327Z,99160.75
2018-03-20T23:39:51.884Z,99166.44
2018-03-20T23:42:19.375Z,99167.69
2018-03-20T23:44:46.926Z,99165.48
2018-03-20T23:47:14.418Z,99163.37
2018-03-20T23:49:41.964Z,99167.68
2018-03-20T23:52:09.501Z,99179.06
2018-03-20T23:54:37.059Z,99188.39
2018-03-20T23:57:04.551Z,99192.84
2018-03-20T23:59:32.072Z,99198.08
